| ตารางข้อมูล | TH20402 | TH4529A | TH4529D | TH814 | ค้นข้อมูล1 | ค้นข้อมูล2 | ค่าสูงสุด-ต่ำสุด |  

Select Sensor -->| 20402 | 4529A | 4529D | 814 | 824 | 834 | 844 | หน้าจอย่อ | 4529 |
ข้อมูลรวม (ยังไม่ได้เลือกรายการ)

IDRoomDate  Temp  Humidity
 134695  20402  2022-07-06 05:43:27  30.2  64.1 
 134694  814  2022-07-06 05:42:16  30.0  88.7 
 134693  4529A  2022-07-06 05:31:40  26.2  62.1 
 134692  4529D  2022-07-06 05:31:32  30.7  68.3 
 134691  20402  2022-07-06 05:23:27  30.9  61.9 
 134690  814  2022-07-06 05:22:14  29.9  88.7 
 134689  4529A  2022-07-06 05:11:38  26.3  63.1 
 134688  4529D  2022-07-06 05:11:29  31.0  67.9 
 134687  20402  2022-07-06 05:03:27  31.1  62.4 
 134686  814  2022-07-06 05:02:12  29.9  88.6 
 134685  4529A  2022-07-06 04:51:36  26.3  62.9 
 134684  4529D  2022-07-06 04:51:27  31.0  67.9 
 134683  20402  2022-07-06 04:43:26  30.9  64.2 
 134682  814  2022-07-06 04:42:09  29.9  88.5 
 134681  4529A  2022-07-06 04:31:33  26.4  62.6 
 134680  4529D  2022-07-06 04:31:25  30.9  67.9 
 134679  20402  2022-07-06 04:23:26  30.9  61.6 
 134678  814  2022-07-06 04:22:07  29.9  88.3 
 134677  4529A  2022-07-06 04:11:31  26.4  63.4 
 134676  4529D  2022-07-06 04:11:22  31.1  67.6 
 134675  20402  2022-07-06 04:03:26  31.2  62.4 
 134674  814  2022-07-06 04:02:04  30.0  88.4 
 134673  4529A  2022-07-06 03:51:28  26.4  62.7 
 134672  4529D  2022-07-06 03:51:20  31.1  67.4 
 134671  20402  2022-07-06 03:43:25  31.1  64.2 
 134670  814  2022-07-06 03:42:02  30.0  88.4 
 134669  4529A  2022-07-06 03:31:26  26.4  62.2 
 134668  4529D  2022-07-06 03:31:18  31.2  67.4 
 134667  20402  2022-07-06 03:23:25  31.2  62.2 
 134666  814  2022-07-06 03:21:59  30.0  88.3 
 134665  4529A  2022-07-06 03:11:24  26.4  61.9 
 134664  4529D  2022-07-06 03:11:15  31.3  67.0 
 134663  20402  2022-07-06 03:03:24  0.0  0.0 
 134662  814  2022-07-06 03:01:57  30.0  88.7 
 134661  4529A  2022-07-06 02:51:21  26.4  61.1 
 134660  4529D  2022-07-06 02:51:13  31.3  67.1 
 134659  20402  2022-07-06 02:43:23  30.6  63.8 
 134658  814  2022-07-06 02:41:54  30.0  88.0 
 134657  4529A  2022-07-06 02:31:19  26.3  60.4 
 134656  4529D  2022-07-06 02:31:10  31.4  66.7 
 134655  20402  2022-07-06 02:23:23  31.2  62.1 
 134654  814  2022-07-06 02:21:52  30.0  87.9 
 134653  4529A  2022-07-06 02:11:16  26.0  58.4 
 134652  4529D  2022-07-06 02:11:08  31.5  66.4 
 134651  20402  2022-07-06 02:03:23  31.1  62.5 
 134650  814  2022-07-06 02:01:50  30.0  87.6 
 134649  4529A  2022-07-06 01:51:14  25.8  56.9 
 134648  4529D  2022-07-06 01:51:06  31.5  66.3 
 134647  20402  2022-07-06 01:43:22  29.9  63.7 
 134646  814  2022-07-06 01:41:47  29.9  87.6 
 134645  4529A  2022-07-06 01:31:11  25.7  53.7 
 134644  4529D  2022-07-06 01:31:03  31.5  65.4 
 134643  20402  2022-07-06 01:23:22  30.7  61.9 
 134642  814  2022-07-06 01:21:45  29.9  87.6 
 134641  4529A  2022-07-06 01:11:09  26.1  53.0 
 134640  4529D  2022-07-06 01:11:01  31.6  65.0 
 134639  20402  2022-07-06 01:03:22  31.1  62.2 
 134638  814  2022-07-06 01:01:42  29.9  87.4 
 134637  4529A  2022-07-06 00:51:07  26.6  55.0 
 134636  4529D  2022-07-06 00:50:59  31.7  65.3 
 134635  20402  2022-07-06 00:43:21  30.1  64.3 
 134634  814  2022-07-06 00:41:40  29.9  87.5 
 134633  4529A  2022-07-06 00:31:04  26.6  55.3 
 134632  4529D  2022-07-06 00:30:56  31.8  63.1 
 134631  20402  2022-07-06 00:23:20  31.2  62.1 
 134630  814  2022-07-06 00:21:37  29.9  87.6 
 134629  4529A  2022-07-06 00:11:02  26.4  57.0 
 134628  4529D  2022-07-06 00:10:54  31.8  62.3 
 134627  20402  2022-07-06 00:03:20  31.2  62.2 
 134626  814  2022-07-06 00:01:35  30.0  87.4 
 134625  4529A  2022-07-05 23:50:59  25.6  50.2 
 134624  4529D  2022-07-05 23:50:51  31.8  62.5 

Data every 20 minute.